Time;durP1;ratioP1;P1;durP2;ratioP2;P2;SDS_P1;SDS_P2;PMS_P1;PMS_P2;Temp;Humidity;BMP_temperature;BMP_pressure;BME280_temperature;BME280_humidity;BME280_pressure;Samples;Min_cycle;Max_cycle;Signal;HPM_P1;HPM_P2
2023/09/02 00:02:22;;;;;;;0.00;0.00;;;;;;;14.62;100.00;100292.34;5015773;28;20018;-76
2023/09/02 00:04:47;;;;;;;0.00;0.00;;;;;;;14.62;99.85;100297.84;4979105;28;20025;-77
2023/09/02 00:07:13;;;;;;;0.00;0.00;;;;;;;14.68;99.91;100307.66;5016026;28;20345;-77
2023/09/02 00:09:40;;;;;;;0.00;0.00;;;;;;;14.59;100.00;100290.16;5005345;28;20045;-76
2023/09/02 00:12:09;;;;;;;0.00;0.00;;;;;;;14.70;100.00;100316.41;5002792;28;20025;-74
2023/09/02 00:14:35;;;;;;;0.00;0.00;;;;;;;14.64;99.70;100301.09;5012568;28;20184;-75
2023/09/02 00:17:02;;;;;;;0.00;0.00;;;;;;;14.63;99.37;100302.19;5006743;28;20105;-75
2023/09/02 00:19:28;;;;;;;0.00;0.00;;;;;;;14.59;99.04;100292.91;5009492;28;20030;-75
2023/09/02 00:21:53;;;;;;;0.00;0.00;;;;;;;14.61;99.01;100298.91;5014322;28;20112;-74
2023/09/02 00:24:19;;;;;;;0.00;0.00;;;;;;;14.73;99.12;100321.31;5026069;28;20076;-77
2023/09/02 00:26:47;;;;;;;0.00;0.00;;;;;;;14.66;99.27;100309.91;5001280;28;21914;-74
2023/09/02 00:29:13;;;;;;;0.00;0.00;;;;;;;14.59;99.28;100320.41;5002609;28;20105;-76
2023/09/02 00:31:38;;;;;;;0.00;0.00;;;;;;;14.62;99.46;100319.84;4988002;28;20083;-76
2023/09/02 00:34:04;;;;;;;0.00;0.00;;;;;;;14.53;99.19;100311.41;5008388;28;20100;-75
2023/09/02 00:36:30;;;;;;;0.00;0.00;;;;;;;14.49;99.37;100313.91;4999608;28;20045;-77
2023/09/02 00:39:05;;;;;;;0.00;0.00;;;;;;;14.58;99.52;100324.28;5011153;28;20026;-75
2023/09/02 00:41:37;;;;;;;0.00;0.00;;;;;;;14.52;99.71;100317.22;5006619;28;20025;-76
2023/09/02 00:44:05;;;;;;;0.00;0.00;;;;;;;14.30;99.62;100286.38;5013327;28;20026;-77
2023/09/02 00:46:34;;;;;;;0.00;0.00;;;;;;;14.31;99.39;100288.00;5011875;28;20044;-76
2023/09/02 00:49:02;;;;;;;0.00;0.00;;;;;;;14.34;99.53;100300.38;5019304;28;20029;-74
2023/09/02 00:51:27;;;;;;;0.00;0.00;;;;;;;14.29;99.88;100298.50;5024219;28;20025;-75
2023/09/02 00:53:53;;;;;;;0.00;0.00;;;;;;;14.21;99.85;100292.84;4988078;28;20478;-75
2023/09/02 00:56:19;;;;;;;0.00;0.00;;;;;;;14.14;99.68;100304.19;5015286;28;20730;-76
2023/09/02 00:58:45;;;;;;;0.00;0.00;;;;;;;14.18;99.93;100320.91;4996165;28;20112;-76
2023/09/02 01:01:11;;;;;;;0.00;0.00;;;;;;;14.16;99.79;100323.13;4998493;28;20030;-75
2023/09/02 01:03:40;;;;;;;0.00;0.00;;;;;;;13.98;99.84;100295.28;5008807;28;20033;-75
2023/09/02 01:06:08;;;;;;;0.00;0.00;;;;;;;13.92;99.80;100301.97;5005436;28;20071;-76
2023/09/02 01:08:39;;;;;;;0.00;0.00;;;;;;;13.89;99.58;100305.28;5013911;28;20411;-76
2023/09/02 01:11:04;;;;;;;0.00;0.00;;;;;;;13.88;99.94;100312.69;5008393;28;20468;-74
2023/09/02 01:13:33;;;;;;;0.00;0.00;;;;;;;13.87;99.42;100310.25;5013485;28;20036;-75
2023/09/02 01:15:58;;;;;;;0.00;0.00;;;;;;;13.82;99.65;100305.63;5025088;28;20037;-75
2023/09/02 01:18:35;;;;;;;0.00;0.00;;;;;;;13.75;99.64;100303.19;5014442;28;20491;-76
2023/09/02 01:21:19;;;;;;;0.00;0.00;;;;;;;13.86;100.00;100319.63;5015186;28;20045;-75
2023/09/02 01:24:25;;;;;;;0.00;0.00;;;;;;;13.66;100.00;100293.97;5006720;28;20667;-75
2023/09/02 01:27:08;;;;;;;0.00;0.00;;;;;;;13.73;99.86;100316.44;5014420;28;20037;-74
2023/09/02 01:29:39;;;;;;;0.00;0.00;;;;;;;13.62;100.00;100309.38;5014145;28;20053;-76
2023/09/02 01:32:06;;;;;;;0.00;0.00;;;;;;;13.68;99.91;100330.22;5010488;28;20018;-75
2023/09/02 01:34:34;;;;;;;0.00;0.00;;;;;;;13.64;100.00;100334.66;5014272;28;20080;-74
2023/09/02 01:37:07;;;;;;;0.00;0.00;;;;;;;13.55;99.65;100320.72;4980312;28;20092;-75
2023/09/02 01:39:33;;;;;;;0.00;0.00;;;;;;;13.65;99.44;100341.78;5019852;28;20084;-76
2023/09/02 01:42:01;;;;;;;0.00;0.00;;;;;;;13.57;99.97;100329.47;4997047;28;20046;-75
2023/09/02 01:44:29;;;;;;;0.00;0.00;;;;;;;13.54;99.47;100332.00;5001757;28;20029;-75
2023/09/02 01:47:01;;;;;;;0.00;0.00;;;;;;;13.59;99.44;100348.44;5014615;28;20031;-74
2023/09/02 01:49:27;;;;;;;0.00;0.00;;;;;;;13.58;99.40;100352.28;5007775;28;20034;-75
2023/09/02 01:51:54;;;;;;;0.00;0.00;;;;;;;13.40;99.83;100324.44;5021277;28;20029;-75
2023/09/02 01:54:19;;;;;;;0.00;0.00;;;;;;;13.46;99.70;100355.41;5013752;28;20108;-76
2023/09/02 01:56:46;;;;;;;0.00;0.00;;;;;;;13.43;99.78;100340.34;5007453;28;20112;-76
2023/09/02 01:59:11;;;;;;;0.00;0.00;;;;;;;13.51;99.61;100365.56;5015981;28;20021;-75
2023/09/02 02:01:37;;;;;;;0.00;0.00;;;;;;;13.51;99.24;100357.31;5002163;28;20514;-76
2023/09/02 02:04:30;;;;;;;0.00;0.00;;;;;;;13.59;99.81;100353.94;4972976;28;20026;-76
2023/09/02 02:07:01;;;;;;;0.00;0.00;;;;;;;13.54;99.41;100348.50;5017946;28;20048;-75
2023/09/02 02:09:33;;;;;;;0.00;0.00;;;;;;;13.61;99.50;100357.22;5018326;28;20083;-74
2023/09/02 02:12:00;;;;;;;0.00;0.00;;;;;;;13.56;99.71;100354.50;5017989;28;20026;-76
2023/09/02 02:14:32;;;;;;;0.00;0.00;;;;;;;13.61;99.79;100362.72;5020303;28;20030;-74
2023/09/02 02:16:58;;;;;;;0.00;0.00;;;;;;;13.50;99.64;100340.00;5009474;28;20022;-74
2023/09/02 02:19:24;;;;;;;0.00;0.00;;;;;;;13.58;99.66;100355.03;5026360;28;20345;-76
2023/09/02 02:21:50;;;;;;;0.00;0.00;;;;;;;13.44;99.64;100336.47;5013968;28;20140;-75
2023/09/02 02:24:15;;;;;;;0.00;0.00;;;;;;;13.57;99.82;100361.66;4995397;28;20178;-73
2023/09/02 02:26:48;;;;;;;0.00;0.00;;;;;;;13.53;99.86;100361.38;5004273;28;20069;-75
2023/09/02 02:29:14;;;;;;;0.00;0.00;;;;;;;13.53;99.81;100372.38;4999713;28;20041;-75
2023/09/02 02:31:39;;;;;;;0.00;0.00;;;;;;;13.56;99.87;100376.47;5018617;28;20033;-74
2023/09/02 02:34:05;;;;;;;0.00;0.00;;;;;;;13.51;99.88;100377.34;5000745;28;20064;-75
2023/09/02 02:36:30;;;;;;;0.00;0.00;;;;;;;13.43;100.00;100376.03;5007843;28;20079;-74
2023/09/02 02:38:56;;;;;;;0.00;0.00;;;;;;;13.44;100.00;100379.59;5017164;28;20099;-74
2023/09/02 02:41:21;;;;;;;0.00;0.00;;;;;;;13.48;99.77;100390.81;4997920;28;20052;-75
2023/09/02 02:43:47;;;;;;;0.00;0.00;;;;;;;13.42;100.00;100382.63;5007580;28;20476;-74
2023/09/02 02:46:12;;;;;;;0.00;0.00;;;;;;;13.48;100.00;100385.31;5000533;28;20525;-75
2023/09/02 02:48:40;;;;;;;0.00;0.00;;;;;;;13.47;100.00;100389.19;4988178;28;20036;-74
2023/09/02 02:51:06;;;;;;;0.00;0.00;;;;;;;13.40;99.92;100398.59;5023857;28;20698;-75
2023/09/02 02:53:32;;;;;;;0.00;0.00;;;;;;;13.30;99.80;100384.88;5025680;28;20034;-74
2023/09/02 02:56:00;;;;;;;0.00;0.00;;;;;;;13.17;100.00;100388.25;5002654;28;20518;-74
2023/09/02 02:58:26;;;;;;;0.00;0.00;;;;;;;13.24;100.00;100383.28;4999003;28;20365;-75
2023/09/02 03:01:06;;;;;;;0.00;0.00;;;;;;;13.48;99.76;100377.09;4981837;28;20087;-77
2023/09/02 03:03:35;;;;;;;0.00;0.00;;;;;;;13.77;98.93;100375.19;5021994;28;20080;-74
2023/09/02 03:06:05;;;;;;;0.00;0.00;;;;;;;13.98;97.60;100377.75;5002577;28;20040;-74
2023/09/02 03:08:31;;;;;;;0.00;0.00;;;;;;;14.13;96.41;100374.88;5023561;28;20149;-75
2023/09/02 03:11:07;;;;;;;0.00;0.00;;;;;;;14.17;95.88;100357.78;5014733;28;20208;-75
2023/09/02 03:13:38;;;;;;;0.00;0.00;;;;;;;14.48;95.65;100381.09;5011176;28;20499;-74
2023/09/02 03:16:04;;;;;;;0.00;0.00;;;;;;;14.65;95.51;100390.81;5015118;28;20053;-73
2023/09/02 03:18:30;;;;;;;0.00;0.00;;;;;;;14.72;95.47;100374.75;5015891;28;20032;-74
2023/09/02 03:21:06;;;;;;;0.00;0.00;;;;;;;14.67;94.98;100366.56;5014312;28;20033;-74
2023/09/02 03:23:35;;;;;;;0.00;0.00;;;;;;;14.84;95.16;100394.41;5025403;28;20061;-74
2023/09/02 03:26:15;;;;;;;0.00;0.00;;;;;;;14.69;95.23;100364.34;5017328;28;20022;-74
2023/09/02 03:28:40;;;;;;;0.00;0.00;;;;;;;14.61;95.59;100345.69;5008670;28;20449;-75
2023/09/02 03:31:10;;;;;;;0.00;0.00;;;;;;;14.89;96.04;100395.47;5015230;28;20121;-76
2023/09/02 03:33:36;;;;;;;0.00;0.00;;;;;;;14.93;96.46;100391.00;5020391;28;20124;-76
2023/09/02 03:36:03;;;;;;;0.00;0.00;;;;;;;14.92;96.42;100394.84;5015007;28;20077;-75
2023/09/02 03:38:29;;;;;;;0.00;0.00;;;;;;;14.92;96.86;100383.84;4997381;28;20117;-74
2023/09/02 03:40:54;;;;;;;0.00;0.00;;;;;;;15.05;96.96;100385.88;4990629;28;20783;-75
2023/09/02 03:43:19;;;;;;;0.00;0.00;;;;;;;14.99;97.32;100370.53;5001562;28;20032;-77
2023/09/02 03:45:56;;;;;;;0.00;0.00;;;;;;;15.16;97.15;100379.09;5008412;28;20025;-76
2023/09/02 03:48:22;;;;;;;0.00;0.00;;;;;;;15.15;97.12;100366.44;5017744;28;20371;-75
2023/09/02 03:51:12;;;;;;;0.00;0.00;;;;;;;15.37;96.97;100387.06;5023349;28;20117;-74
2023/09/02 03:53:41;;;;;;;0.00;0.00;;;;;;;15.50;96.51;100394.56;5008288;28;20353;-74
2023/09/02 03:56:07;;;;;;;0.00;0.00;;;;;;;15.37;96.88;100376.03;5021733;28;20111;-74
2023/09/02 03:58:32;;;;;;;0.00;0.00;;;;;;;15.43;97.08;100377.59;5018272;28;20512;-77
2023/09/02 04:00:58;;;;;;;0.00;0.00;;;;;;;15.52;97.08;100392.34;5019533;28;21868;-74
2023/09/02 04:03:25;;;;;;;0.00;0.00;;;;;;;15.50;97.30;100400.06;5020420;28;20091;-74
2023/09/02 04:05:52;;;;;;;0.00;0.00;;;;;;;15.52;97.56;100397.84;5013164;28;20034;-76
2023/09/02 04:08:35;;;;;;;0.00;0.00;;;;;;;15.45;97.53;100391.91;5021515;28;20022;-76
2023/09/02 04:11:04;;;;;;;0.00;0.00;;;;;;;15.27;97.79;100390.78;4986065;28;20040;-74
2023/09/02 04:13:30;;;;;;;0.00;0.00;;;;;;;15.08;98.62;100382.50;5017807;28;20480;-75
2023/09/02 04:15:57;;;;;;;0.00;0.00;;;;;;;15.13;98.57;100395.41;5006530;28;20065;-76
2023/09/02 04:18:23;;;;;;;0.00;0.00;;;;;;;14.96;98.95;100399.47;5024507;28;20401;-75
2023/09/02 04:20:49;;;;;;;0.00;0.00;;;;;;;14.84;100.00;100421.94;5014697;28;20128;-75
2023/09/02 04:23:15;;;;;;;0.00;0.00;;;;;;;14.78;100.00;100412.09;5006512;28;20116;-75
2023/09/02 04:25:45;;;;;;;0.00;0.00;;;;;;;14.98;100.00;100432.22;5022020;28;20045;-76
2023/09/02 04:28:11;;;;;;;0.00;0.00;;;;;;;15.15;100.00;100440.81;5019969;28;20132;-76
2023/09/02 04:30:36;;;;;;;0.00;0.00;;;;;;;15.23;99.89;100438.50;5005106;28;20037;-76
2023/09/02 04:33:10;;;;;;;0.00;0.00;;;;;;;15.32;99.17;100442.25;4980384;28;20420;-75
2023/09/02 04:35:40;;;;;;;0.00;0.00;;;;;;;15.47;99.04;100454.97;5006859;28;20044;-75
2023/09/02 04:38:06;;;;;;;0.00;0.00;;;;;;;15.51;98.33;100456.03;5003507;28;20120;-75
2023/09/02 04:40:44;;;;;;;0.00;0.00;;;;;;;15.53;97.87;100449.06;4990157;28;20095;-75
2023/09/02 04:43:12;;;;;;;0.00;0.00;;;;;;;15.48;97.95;100429.88;5021371;28;20033;-75
2023/09/02 04:45:39;;;;;;;0.00;0.00;;;;;;;15.55;97.93;100446.03;5017275;28;20116;-75
2023/09/02 04:48:06;;;;;;;0.00;0.00;;;;;;;15.63;97.26;100458.31;4998361;28;20030;-76
2023/09/02 04:50:33;;;;;;;0.00;0.00;;;;;;;15.63;97.34;100455.56;4987644;28;20035;-75
2023/09/02 04:52:59;;;;;;;0.00;0.00;;;;;;;15.67;97.13;100464.88;4988754;28;20030;-76
2023/09/02 04:55:25;;;;;;;0.00;0.00;;;;;;;15.69;96.86;100462.63;5015190;28;20970;-76
2023/09/02 04:57:52;;;;;;;0.00;0.00;;;;;;;15.66;96.91;100460.47;4997948;28;20033;-76
2023/09/02 05:00:18;;;;;;;0.00;0.00;;;;;;;15.69;96.81;100468.94;5018054;28;20033;-77
2023/09/02 05:02:44;;;;;;;0.00;0.00;;;;;;;15.67;97.42;100471.19;4996126;28;20029;-76
2023/09/02 05:05:10;;;;;;;0.00;0.00;;;;;;;15.74;97.44;100492.88;5022516;28;20033;-75
2023/09/02 05:07:36;;;;;;;0.00;0.00;;;;;;;15.72;97.33;100486.84;5002392;28;20064;-76
2023/09/02 05:10:01;;;;;;;0.00;0.00;;;;;;;15.80;97.10;100500.00;5007497;28;20049;-76
2023/09/02 05:12:27;;;;;;;0.00;0.00;;;;;;;15.76;97.18;100493.41;5005911;28;20025;-76
2023/09/02 05:14:53;;;;;;;0.00;0.00;;;;;;;15.65;97.07;100478.13;5017024;28;20057;-77
2023/09/02 05:17:21;;;;;;;0.00;0.00;;;;;;;15.73;96.88;100491.25;5005583;28;20037;-78
2023/09/02 05:19:57;;;;;;;0.00;0.00;;;;;;;15.76;97.03;100490.63;5000304;28;20029;-78
2023/09/02 05:23:00;;;;;;;;;;;;;;;;;;;;;
2023/09/02 05:25:32;;;;;;;0.00;0.00;;;;;;;15.67;96.25;100492.44;5021765;28;20053;-76
2023/09/02 05:27:59;;;;;;;0.00;0.00;;;;;;;15.68;96.61;100494.06;5014844;28;20079;-77
2023/09/02 05:30:28;;;;;;;0.00;0.00;;;;;;;15.65;96.01;100494.66;5024893;28;20025;-76
2023/09/02 05:32:53;;;;;;;0.00;0.00;;;;;;;15.73;96.63;100505.03;5015448;28;20044;-74
2023/09/02 05:35:19;;;;;;;0.00;0.00;;;;;;;15.79;96.49;100514.06;5017069;28;20388;-74
2023/09/02 05:37:44;;;;;;;0.00;0.00;;;;;;;15.75;96.43;100511.06;4981907;28;20053;-73
2023/09/02 05:40:10;;;;;;;0.00;0.00;;;;;;;15.80;96.67;100524.81;5014213;28;20037;-74
2023/09/02 05:42:36;;;;;;;0.00;0.00;;;;;;;15.75;96.45;100522.06;5016304;28;20767;-77
2023/09/02 05:45:01;;;;;;;0.00;0.00;;;;;;;15.76;96.63;100529.25;5020520;28;20025;-74
2023/09/02 05:47:27;;;;;;;0.00;0.00;;;;;;;15.79;96.67;100533.38;4992674;28;20476;-73
2023/09/02 05:49:52;;;;;;;0.00;0.00;;;;;;;15.80;96.75;100535.84;5015936;28;20121;-74
2023/09/02 05:52:17;;;;;;;0.00;0.00;;;;;;;15.81;96.46;100542.16;5017966;28;20640;-74
2023/09/02 05:54:53;;;;;;;0.00;0.00;;;;;;;15.89;96.89;100547.00;5018095;28;20026;-74
2023/09/02 05:57:18;;;;;;;0.00;0.00;;;;;;;15.87;96.75;100535.44;5016936;28;20429;-74
2023/09/02 05:59:44;;;;;;;0.00;0.00;;;;;;;15.85;96.22;100521.94;4997824;28;20121;-74
2023/09/02 06:02:13;;;;;;;0.00;0.00;;;;;;;15.98;96.32;100534.16;5017212;28;20033;-75
2023/09/02 06:04:38;;;;;;;0.00;0.00;;;;;;;16.00;96.36;100528.34;4998317;28;20046;-74
2023/09/02 06:07:15;;;;;;;0.00;0.00;;;;;;;16.06;96.57;100527.16;5006165;28;20057;-75
2023/09/02 06:09:42;;;;;;;0.00;0.00;;;;;;;16.20;96.01;100541.00;5015957;28;20060;-76
2023/09/02 06:12:07;;;;;;;0.00;0.00;;;;;;;16.35;95.91;100562.00;4987844;28;20081;-72
2023/09/02 06:14:33;;;;;;;0.00;0.00;;;;;;;16.45;95.49;100561.00;5006415;28;20044;-74
2023/09/02 06:16:58;;;;;;;0.00;0.00;;;;;;;16.50;95.69;100564.50;5010755;28;20084;-74
2023/09/02 06:19:24;;;;;;;0.00;0.00;;;;;;;16.50;95.32;100542.44;5011416;28;20029;-76
2023/09/02 06:21:49;;;;;;;0.00;0.00;;;;;;;16.69;94.88;100544.28;5023482;28;20032;-74
2023/09/02 06:24:17;;;;;;;0.00;0.00;;;;;;;16.78;94.13;100548.00;5002313;28;21024;-75
2023/09/02 06:26:42;;;;;;;0.00;0.00;;;;;;;16.85;93.89;100544.81;5023548;28;20069;-74
2023/09/02 06:29:08;;;;;;;0.00;0.00;;;;;;;16.92;93.69;100554.41;5015939;28;20547;-73
2023/09/02 06:31:33;;;;;;;0.00;0.00;;;;;;;17.12;93.45;100574.44;5009070;28;20479;-74
2023/09/02 06:33:59;;;;;;;0.00;0.00;;;;;;;17.25;93.08;100573.63;4990243;28;20461;-75
2023/09/02 06:36:24;;;;;;;0.00;0.00;;;;;;;17.43;92.46;100579.34;5000000;28;20034;-75
2023/09/02 06:38:50;;;;;;;0.00;0.00;;;;;;;17.55;92.30;100576.88;5021976;28;20052;-74
2023/09/02 06:41:16;;;;;;;0.00;0.00;;;;;;;17.71;91.67;100576.53;5004959;28;20037;-74
2023/09/02 06:43:42;;;;;;;0.00;0.00;;;;;;;17.84;91.37;100578.44;5015419;28;20108;-75
2023/09/02 06:46:19;;;;;;;0.00;0.00;;;;;;;17.87;90.69;100577.84;5016400;28;20018;-75
2023/09/02 06:48:46;;;;;;;0.00;0.00;;;;;;;18.01;90.55;100583.34;5028931;28;20024;-75
2023/09/02 06:51:12;;;;;;;0.00;0.00;;;;;;;18.14;90.37;100587.22;5009937;28;20095;-74
2023/09/02 06:53:38;;;;;;;0.00;0.00;;;;;;;18.20;89.54;100597.03;5013572;28;20053;-74
2023/09/02 06:56:08;;;;;;;0.00;0.00;;;;;;;18.33;89.97;100600.06;5022873;28;20030;-75
2023/09/02 06:58:36;;;;;;;0.00;0.00;;;;;;;18.53;89.52;100599.56;5008337;28;20385;-74
2023/09/02 07:01:04;;;;;;;0.00;0.00;;;;;;;18.79;88.09;100591.41;4979370;28;20491;-76
2023/09/02 07:03:30;;;;;;;0.00;0.00;;;;;;;18.86;87.76;100588.19;4986331;28;20048;-77
2023/09/02 07:06:23;;;;;;;0.00;0.00;;;;;;;19.14;86.78;100580.53;5002318;28;20029;-75
2023/09/02 07:08:52;;;;;;;0.00;0.00;;;;;;;19.55;85.00;100589.59;5003809;28;20046;-77
2023/09/02 07:11:17;;;;;;;0.00;0.00;;;;;;;19.64;84.64;100603.47;5013975;28;20035;-77
2023/09/02 07:13:46;;;;;;;0.00;0.00;;;;;;;19.55;83.95;100578.50;5014186;28;20030;-77
2023/09/02 07:16:15;;;;;;;0.00;0.00;;;;;;;19.69;84.17;100595.81;4992695;28;20064;-77
2023/09/02 07:18:51;;;;;;;0.00;0.00;;;;;;;19.55;84.21;100584.03;5012382;28;20034;-76
2023/09/02 07:21:22;;;;;;;0.00;0.00;;;;;;;19.48;84.17;100580.97;5021942;28;20079;-77
2023/09/02 07:23:47;;;;;;;0.00;0.00;;;;;;;19.69;84.35;100573.63;5009170;28;20049;-75
2023/09/02 07:26:21;;;;;;;0.00;0.00;;;;;;;20.09;82.76;100574.66;5001972;28;20037;-76
2023/09/02 07:28:49;;;;;;;0.00;0.00;;;;;;;20.51;81.22;100609.09;5014256;28;20032;-77
2023/09/02 07:31:15;;;;;;;0.00;0.00;;;;;;;20.70;80.40;100589.31;5029317;28;20044;-77
2023/09/02 07:33:41;;;;;;;0.00;0.00;;;;;;;21.37;78.89;100627.84;5022326;28;20021;-76
2023/09/02 07:36:12;;;;;;;0.00;0.00;;;;;;;21.89;77.39;100604.47;5025601;28;20040;-75
2023/09/02 07:38:46;;;;;;;0.00;0.00;;;;;;;22.36;75.02;100612.66;5019178;28;20018;-77
2023/09/02 07:41:14;;;;;;;0.00;0.00;;;;;;;22.34;73.59;100612.22;5016244;28;20037;-75
2023/09/02 07:43:39;;;;;;;0.00;0.00;;;;;;;22.44;72.94;100636.84;5017924;28;20028;-76
2023/09/02 07:46:10;;;;;;;0.00;0.00;;;;;;;22.63;71.73;100621.59;5007333;28;20022;-78
2023/09/02 07:48:35;;;;;;;0.00;0.00;;;;;;;22.77;70.07;100619.31;5013529;28;20030;-77
2023/09/02 07:51:01;;;;;;;0.00;0.00;;;;;;;22.74;69.38;100638.72;5015160;28;20017;-78
2023/09/02 07:53:28;;;;;;;0.00;0.00;;;;;;;22.32;69.85;100622.84;5019003;28;20029;-76
2023/09/02 07:55:54;;;;;;;0.00;0.00;;;;;;;22.10;70.27;100633.16;5007750;28;20399;-76
2023/09/02 07:58:22;;;;;;;0.00;0.00;;;;;;;22.25;71.09;100644.84;5022475;28;20026;-77
2023/09/02 08:00:54;;;;;;;0.00;0.00;;;;;;;22.52;70.23;100651.06;5001222;28;20075;-78
2023/09/02 08:03:21;;;;;;;0.00;0.00;;;;;;;22.38;70.00;100642.97;5014695;28;20026;-78
2023/09/02 08:05:52;;;;;;;0.00;0.00;;;;;;;22.30;70.11;100662.16;4988748;28;20030;-77
2023/09/02 08:08:17;;;;;;;0.00;0.00;;;;;;;22.36;70.88;100685.09;5024008;28;20384;-77
2023/09/02 08:10:42;;;;;;;0.00;0.00;;;;;;;22.38;70.86;100682.78;4999472;28;20037;-79
2023/09/02 08:13:09;;;;;;;0.00;0.00;;;;;;;22.36;70.47;100696.25;5022291;28;20022;-76
2023/09/02 08:15:37;;;;;;;0.00;0.00;;;;;;;22.07;70.65;100670.03;5003246;28;20629;-77
2023/09/02 08:18:06;;;;;;;0.00;0.00;;;;;;;21.83;70.73;100672.63;5014287;28;20530;-77
2023/09/02 08:20:39;;;;;;;0.00;0.00;;;;;;;21.74;71.27;100693.00;5023540;28;20053;-76
2023/09/02 08:23:07;;;;;;;0.00;0.00;;;;;;;21.68;71.42;100683.19;5036131;28;20576;-76
2023/09/02 08:25:32;;;;;;;0.00;0.00;;;;;;;21.72;71.19;100688.91;5020850;28;20049;-77
2023/09/02 08:28:00;;;;;;;0.00;0.00;;;;;;;21.92;71.60;100717.97;5007461;28;21414;-76
2023/09/02 08:30:25;;;;;;;0.00;0.00;;;;;;;22.01;71.57;100724.28;5023374;28;20034;-74
2023/09/02 08:32:51;;;;;;;0.00;0.00;;;;;;;22.24;71.04;100701.69;5002911;28;20805;-75
2023/09/02 08:35:17;;;;;;;0.00;0.00;;;;;;;22.91;69.43;100726.91;5005133;28;20120;-76
2023/09/02 08:37:52;;;;;;;0.00;0.00;;;;;;;22.82;68.45;100719.47;4989580;28;20088;-76
2023/09/02 08:40:18;;;;;;;0.00;0.00;;;;;;;22.74;68.84;100731.50;5017850;28;20025;-77
2023/09/02 08:42:44;;;;;;;0.00;0.00;;;;;;;22.47;69.25;100736.47;5014477;28;20036;-76
2023/09/02 08:45:13;;;;;;;0.00;0.00;;;;;;;22.18;69.84;100736.47;5023294;28;20018;-74
2023/09/02 08:47:39;;;;;;;0.00;0.00;;;;;;;22.12;70.37;100742.25;5016709;28;20030;-75
2023/09/02 08:50:08;;;;;;;0.00;0.00;;;;;;;22.07;70.34;100744.41;5002619;28;20064;-77
2023/09/02 08:52:34;;;;;;;0.00;0.00;;;;;;;22.14;70.86;100742.72;5009157;28;20571;-77
2023/09/02 08:55:05;;;;;;;0.00;0.00;;;;;;;22.86;69.84;100757.81;5007462;28;20065;-76
2023/09/02 08:57:35;;;;;;;0.00;0.00;;;;;;;23.81;67.21;100764.34;5012380;28;20033;-76
2023/09/02 09:00:05;;;;;;;0.00;0.00;;;;;;;24.60;64.87;100756.88;5004874;28;20026;-76
2023/09/02 09:02:34;;;;;;;0.00;0.00;;;;;;;25.00;63.48;100764.41;5002213;28;20025;-75
2023/09/02 09:05:06;;;;;;;0.00;0.00;;;;;;;25.47;63.15;100762.94;5021546;28;20463;-76
2023/09/02 09:07:36;;;;;;;0.00;0.00;;;;;;;26.73;59.90;100761.16;5009353;28;20033;-78
2023/09/02 09:10:05;;;;;;;0.00;0.00;;;;;;;28.44;54.62;100762.97;5028460;28;20073;-76
2023/09/02 09:12:32;;;;;;;0.00;0.00;;;;;;;29.11;51.54;100781.94;5013883;28;20538;-77
2023/09/02 09:14:59;;;;;;;0.00;0.00;;;;;;;28.18;51.70;100775.84;5009126;28;20041;-76
2023/09/02 09:17:25;;;;;;;0.00;0.00;;;;;;;27.31;53.29;100771.53;5017593;28;20029;-77
2023/09/02 09:19:56;;;;;;;0.00;0.00;;;;;;;26.96;54.37;100772.47;4993136;28;20491;-76
2023/09/02 09:22:21;;;;;;;0.00;0.00;;;;;;;26.70;54.63;100783.53;5021334;28;20044;-77
2023/09/02 09:24:47;;;;;;;0.00;0.00;;;;;;;26.10;55.11;100781.75;5004270;28;20050;-77
2023/09/02 09:27:13;;;;;;;0.00;0.00;;;;;;;25.87;56.18;100776.75;5024316;28;20826;-76
2023/09/02 09:29:50;;;;;;;0.00;0.00;;;;;;;25.94;56.26;100793.75;5020235;28;20026;-76
2023/09/02 09:32:18;;;;;;;0.00;0.00;;;;;;;25.78;56.04;100767.75;5020332;28;20071;-76
2023/09/02 09:34:51;;;;;;;0.00;0.00;;;;;;;25.75;56.11;100779.66;5024602;28;20017;-76
2023/09/02 09:37:21;;;;;;;0.00;0.00;;;;;;;25.54;56.42;100775.16;5027932;28;20045;-76
2023/09/02 09:39:54;;;;;;;0.00;0.00;;;;;;;25.14;57.19;100766.81;5017431;28;20029;-75
2023/09/02 09:42:35;;;;;;;0.00;0.00;;;;;;;24.74;57.81;100776.88;5019328;28;20542;-77
2023/09/02 09:45:03;;;;;;;0.00;0.00;;;;;;;24.29;58.39;100778.69;5013296;28;20028;-78
2023/09/02 09:47:34;;;;;;;0.00;0.00;;;;;;;24.02;60.15;100791.38;5027303;28;20369;-79
2023/09/02 09:50:13;;;;;;;0.00;0.00;;;;;;;24.64;60.21;100782.97;5021215;28;20732;-78
2023/09/02 09:52:58;;;;;;;0.00;0.00;;;;;;;25.82;56.61;100802.25;5015374;28;20024;-75
2023/09/02 09:55:26;;;;;;;0.00;0.00;;;;;;;25.75;55.09;100791.66;5008097;28;20491;-77
2023/09/02 09:57:57;;;;;;;0.00;0.00;;;;;;;25.08;55.84;100783.03;5003753;28;20029;-76
2023/09/02 10:00:23;;;;;;;0.00;0.00;;;;;;;24.67;57.08;100787.84;5007144;28;20026;-77
2023/09/02 10:03:01;;;;;;;0.00;0.00;;;;;;;24.50;57.74;100781.34;5025804;28;20032;-74
2023/09/02 10:05:39;;;;;;;0.00;0.00;;;;;;;24.82;57.88;100798.28;5019380;28;20021;-76
2023/09/02 10:08:08;;;;;;;0.00;0.00;;;;;;;24.89;57.31;100795.69;5017168;28;20033;-76
2023/09/02 10:10:41;;;;;;;0.00;0.00;;;;;;;26.23;55.83;100794.47;4996276;28;20037;-77
2023/09/02 10:13:07;;;;;;;0.00;0.00;;;;;;;28.68;50.91;100804.75;5023322;28;20041;-76
2023/09/02 10:15:33;;;;;;;0.00;0.00;;;;;;;30.95;46.03;100812.44;5003945;28;20045;-76
2023/09/02 10:18:00;;;;;;;0.00;0.00;;;;;;;32.86;39.98;100795.59;5007890;28;20021;-77
2023/09/02 10:20:28;;;;;;;0.00;0.00;;;;;;;31.89;40.73;100812.69;5021008;28;20022;-78
2023/09/02 10:22:56;;;;;;;0.00;0.00;;;;;;;30.98;43.12;100822.13;5014706;28;20396;-78
2023/09/02 10:25:37;;;;;;;0.00;0.00;;;;;;;33.32;39.80;100809.94;5023975;28;20060;-77
2023/09/02 10:28:14;;;;;;;0.00;0.00;;;;;;;33.01;39.44;100821.00;5013836;28;20026;-77
2023/09/02 10:30:49;;;;;;;0.00;0.00;;;;;;;31.54;40.33;100819.09;5001862;28;20049;-76
2023/09/02 10:33:31;;;;;;;0.00;0.00;;;;;;;30.29;42.55;100826.56;5023734;28;20044;-78
2023/09/02 10:36:02;;;;;;;0.00;0.00;;;;;;;29.31;43.71;100830.47;5010298;28;20084;-77
2023/09/02 10:38:31;;;;;;;0.00;0.00;;;;;;;28.72;45.54;100825.31;5018438;28;20036;-77
2023/09/02 10:41:10;;;;;;;0.00;0.00;;;;;;;31.07;44.46;100808.47;5016670;28;20496;-76
2023/09/02 10:43:37;;;;;;;0.00;0.00;;;;;;;33.62;37.17;100839.75;5016339;28;20071;-76
2023/09/02 10:46:07;;;;;;;0.00;0.00;;;;;;;32.37;37.71;100819.97;5012057;28;20079;-76
2023/09/02 10:48:36;;;;;;;0.00;0.00;;;;;;;31.32;39.83;100838.81;5017362;28;21435;-76
2023/09/02 10:51:06;;;;;;;0.00;0.00;;;;;;;31.12;40.99;100833.53;5017454;28;20022;-78
2023/09/02 10:54:01;;;;;;;0.00;0.00;;;;;;;35.35;37.80;100838.84;5014928;28;20440;-76
2023/09/02 10:56:34;;;;;;;0.00;0.00;;;;;;;37.50;31.58;100829.63;5012627;28;20502;-77
2023/09/02 10:59:04;;;;;;;0.00;0.00;;;;;;;35.21;32.97;100831.31;5016406;28;20031;-76
2023/09/02 11:01:56;;;;;;;0.00;0.00;;;;;;;33.31;35.60;100831.81;5018030;28;20029;-77
2023/09/02 11:04:50;;;;;;;;;;;;;;;;;;;;;
2023/09/02 11:07:26;;;;;;;0.00;0.00;;;;;;;31.40;38.37;100854.59;5009209;28;20048;-77
2023/09/02 11:09:53;;;;;;;0.00;0.00;;;;;;;33.85;37.00;100842.00;5007069;28;20144;-77
2023/09/02 11:12:29;;;;;;;0.00;0.00;;;;;;;37.23;31.42;100819.22;5011735;28;21429;-77
2023/09/02 11:15:12;;;;;;;0.00;0.00;;;;;;;38.53;30.00;100873.19;5024456;28;20025;-77
2023/09/02 11:17:39;;;;;;;0.00;0.00;;;;;;;38.01;29.35;100872.03;5009866;28;20027;-77
2023/09/02 11:20:11;;;;;;;0.00;0.00;;;;;;;36.46;30.87;100835.44;5028911;28;20477;-77
2023/09/02 11:22:54;;;;;;;0.00;0.00;;;;;;;38.73;28.98;100870.22;5007087;28;20057;-77
2023/09/02 11:26:12;;;;;;;0.00;0.00;;;;;;;43.19;23.92;100858.53;5021106;28;20030;-77
2023/09/02 11:28:40;;;;;;;0.00;0.00;;;;;;;43.82;21.81;100834.91;5018347;28;20129;-77
2023/09/02 11:31:12;;;;;;;0.00;0.00;;;;;;;44.49;22.05;100846.31;4993467;28;21285;-78
2023/09/02 11:33:56;;;;;;;0.00;0.00;;;;;;;47.44;19.18;100845.38;4999157;28;20042;-77
2023/09/02 11:36:32;;;;;;;0.00;0.00;;;;;;;47.48;18.82;100828.56;5015481;28;20044;-76
2023/09/02 11:39:38;;;;;;;;;;;;;;;;;;;;;
2023/09/02 11:42:14;;;;;;;0.00;0.00;;;;;;;46.91;19.59;100798.38;4991391;28;20045;-76